Time;durP1;ratioP1;P1;durP2;ratioP2;P2;SDS_P1;SDS_P2;PMS_P1;PMS_P2;Temp;Humidity;BMP_temperature;BMP_pressure;BME280_temperature;BME280_humidity;BME280_pressure;Samples;Min_cycle;Max_cycle;Signal;HPM_P1;HPM_P2
2024/01/08 00:02:23;;;;;;;;;0.00;0.00;;;;;-0.44;79.74;101053.00;5118935;28;8832;-59
2024/01/08 00:04:51;;;;;;;;;3.00;3.00;;;;;-0.43;79.25;101052.97;5119701;28;8819;-57
2024/01/08 00:07:19;;;;;;;;;1.00;1.00;;;;;-0.44;78.89;101046.03;5118956;28;8831;-57
2024/01/08 00:09:46;;;;;;;;;1.80;1.00;;;;;-0.44;79.39;101053.00;5118669;28;8843;-59
2024/01/08 00:12:14;;;;;;;;;1.00;1.00;;;;;-0.45;78.82;101051.25;5118954;28;8841;-59
2024/01/08 00:14:41;;;;;;;;;1.00;0.00;;;;;-0.46;78.99;101060.84;5118809;28;8846;-59
2024/01/08 00:17:09;;;;;;;;;0.00;0.00;;;;;-0.48;79.20;101057.41;5118295;28;8836;-56
2024/01/08 00:19:37;;;;;;;;;0.40;0.00;;;;;-0.47;78.51;101063.50;5118244;28;8831;-58
2024/01/08 00:22:04;;;;;;;;;1.00;1.00;;;;;-0.49;79.07;101060.03;5118166;28;8859;-59
2024/01/08 00:24:32;;;;;;;;;1.00;1.00;;;;;-0.51;78.60;101062.69;5118476;28;8840;-60
2024/01/08 00:27:00;;;;;;;;;0.40;0.40;;;;;-0.55;78.62;101058.41;5117551;28;8824;-59
2024/01/08 00:29:27;;;;;;;;;1.00;0.40;;;;;-0.54;79.05;101059.28;5118082;28;8824;-59
2024/01/08 00:31:55;;;;;;;;;3.60;3.20;;;;;-0.55;78.56;101060.16;5117897;28;8877;-58
2024/01/08 00:34:24;;;;;;;;;0.20;0.20;;;;;-0.57;79.07;101061.91;5118347;28;8943;-59
2024/01/08 00:36:52;;;;;;;;;2.60;1.40;;;;;-0.58;78.99;101057.59;5118166;28;9524;-59
2024/01/08 00:39:20;;;;;;;;;1.00;0.60;;;;;-0.61;78.39;101066.34;5117838;28;8846;-59
2024/01/08 00:41:47;;;;;;;;;0.80;0.40;;;;;-0.63;78.75;101059.44;5118159;28;8824;-59
2024/01/08 00:44:15;;;;;;;;;1.40;1.40;;;;;-0.64;79.26;101060.28;5118102;28;8848;-59
2024/01/08 00:46:42;;;;;;;;;1.00;1.00;;;;;-0.66;78.37;101059.47;5118334;28;8948;-59
2024/01/08 00:49:10;;;;;;;;;2.20;0.80;;;;;-0.66;78.71;101062.09;5117933;28;9516;-59
2024/01/08 00:51:37;;;;;;;;;0.20;0.00;;;;;-0.67;79.17;101058.63;5117947;28;8816;-57
2024/01/08 00:54:05;;;;;;;;;4.00;3.00;;;;;-0.68;78.81;101048.19;5118030;28;8838;-58
2024/01/08 00:56:33;;;;;;;;;3.80;1.40;;;;;-0.67;78.83;101047.28;5118140;28;8842;-58
2024/01/08 00:59:00;;;;;;;;;3.80;3.80;;;;;-0.68;78.47;101053.41;5117457;28;8862;-58
2024/01/08 01:01:28;;;;;;;;;1.00;0.20;;;;;-0.74;79.41;101048.28;5117546;28;8916;-59
2024/01/08 01:03:56;;;;;;;;;3.60;3.20;;;;;-0.75;78.83;101057.00;5117773;28;8820;-58
2024/01/08 01:06:24;;;;;;;;;0.60;0.60;;;;;-0.77;79.22;101046.56;5118146;28;8824;-59
2024/01/08 01:08:52;;;;;;;;;0.00;0.00;;;;;-0.79;78.84;101056.19;5117573;28;8875;-59
2024/01/08 01:11:21;;;;;;;;;1.00;0.80;;;;;-0.82;78.79;101051.03;5116385;28;8843;-58
2024/01/08 01:13:48;;;;;;;;;1.00;1.00;;;;;-0.86;78.81;101051.94;5116288;28;8844;-58
2024/01/08 01:16:16;;;;;;;;;1.00;1.00;;;;;-0.90;79.16;101062.47;5116191;28;8812;-59
2024/01/08 01:18:43;;;;;;;;;0.80;0.80;;;;;-0.94;78.87;101055.56;5117526;28;8939;-59
2024/01/08 01:21:14;;;;;;;;;1.00;1.00;;;;;-0.96;79.24;101054.72;5116979;28;8843;-59
2024/01/08 01:23:41;;;;;;;;;1.00;1.00;;;;;-0.97;79.80;101050.41;5117345;28;8820;-59
2024/01/08 01:26:09;;;;;;;;;3.60;3.60;;;;;-0.98;79.60;101064.34;5117306;28;8861;-59
2024/01/08 01:28:38;;;;;;;;;1.00;1.00;;;;;-0.95;79.16;101059.06;5117281;28;8897;-59
2024/01/08 01:31:06;;;;;;;;;4.00;3.40;;;;;-0.90;79.76;101063.38;5116680;28;8951;-58
2024/01/08 01:33:33;;;;;;;;;1.40;1.40;;;;;-0.86;79.11;101069.41;5116766;28;8816;-59
2024/01/08 01:36:01;;;;;;;;;0.00;0.00;;;;;-0.83;78.99;101074.56;5116892;28;8861;-59
2024/01/08 01:38:29;;;;;;;;;2.20;1.00;;;;;-0.80;78.88;101064.94;5116694;28;8854;-59
2024/01/08 01:40:56;;;;;;;;;3.80;3.80;;;;;-0.77;78.97;101062.25;5116874;28;8820;-59
2024/01/08 01:43:24;;;;;;;;;1.00;0.60;;;;;-0.76;78.86;101077.03;5117308;28;8828;-59
2024/01/08 01:45:51;;;;;;;;;2.60;2.60;;;;;-0.76;79.15;101068.34;5116933;28;8848;-58
2024/01/08 01:48:19;;;;;;;;;5.60;4.00;;;;;-0.76;79.48;101077.03;5116853;28;8828;-59
2024/01/08 01:50:47;;;;;;;;;1.00;1.00;;;;;-0.76;78.87;101077.03;5116846;28;8812;-59
2024/01/08 01:53:14;;;;;;;;;1.00;1.00;;;;;-0.74;78.90;101074.41;5116756;28;8827;-59
2024/01/08 01:55:42;;;;;;;;;1.80;1.00;;;;;-0.73;79.29;101066.56;5116819;28;8906;-57
2024/01/08 01:58:10;;;;;;;;;3.00;1.80;;;;;-0.72;79.06;101070.03;5116362;28;8832;-58
2024/01/08 02:00:37;;;;;;;;;3.00;2.20;;;;;-0.70;78.88;101068.28;5116086;28;8897;-59
2024/01/08 02:03:05;;;;;;;;;3.20;3.20;;;;;-0.70;79.15;101063.88;5116440;28;8819;-60
2024/01/08 02:05:33;;;;;;;;;1.80;1.80;;;;;-0.72;79.54;101067.41;5116696;28;8832;-59
2024/01/08 02:08:01;;;;;;;;;2.60;1.40;;;;;-0.75;79.18;101070.09;5116670;28;8906;-60
2024/01/08 02:10:29;;;;;;;;;0.00;0.00;;;;;-0.83;79.34;101070.19;5116774;28;8820;-57
2024/01/08 02:12:57;;;;;;;;;2.60;1.80;;;;;-0.83;79.54;101061.50;5116552;28;8824;-59
2024/01/08 02:15:25;;;;;;;;;0.80;0.80;;;;;-0.82;79.40;101063.22;5116589;28;8824;-59
2024/01/08 02:17:53;;;;;;;;;3.80;3.00;;;;;-0.81;79.24;101060.59;5116343;28;8828;-59
2024/01/08 02:20:22;;;;;;;;;1.40;1.40;;;;;-0.83;79.02;101061.50;5116033;28;8792;-59
2024/01/08 02:22:49;;;;;;;;;1.40;1.40;;;;;-0.83;78.91;101056.28;5115926;28;8846;-60
2024/01/08 02:25:17;;;;;;;;;3.00;3.00;;;;;-0.84;79.09;101068.47;5116175;28;9548;-60
2024/01/08 02:27:44;;;;;;;;;1.00;1.00;;;;;-0.85;79.39;101055.44;5116305;28;8839;-58
2024/01/08 02:30:12;;;;;;;;;1.00;1.00;;;;;-0.85;79.28;101060.66;5116105;28;8816;-59
2024/01/08 02:32:40;;;;;;;;;1.80;1.80;;;;;-0.81;79.32;101054.50;5115721;28;8827;-59
2024/01/08 02:35:07;;;;;;;;;0.60;0.60;;;;;-0.78;79.07;101050.06;5116178;28;8950;-59
2024/01/08 02:37:35;;;;;;;;;3.00;3.00;;;;;-0.78;79.24;101060.53;5115967;28;8835;-58
2024/01/08 02:40:03;;;;;;;;;1.00;1.00;;;;;-0.79;79.78;101061.44;5115816;28;8839;-58
2024/01/08 02:42:31;;;;;;;;;3.80;3.80;;;;;-0.78;79.77;101062.31;5116245;28;9500;-57
2024/01/08 02:45:00;;;;;;;;;1.00;1.00;;;;;-0.74;79.23;101058.72;5116053;28;8839;-58
2024/01/08 02:47:28;;;;;;;;;1.80;1.40;;;;;-0.73;79.47;101050.88;5115938;28;8913;-60
2024/01/08 02:49:56;;;;;;;;;1.00;0.80;;;;;-0.73;79.36;101052.63;5116838;28;8912;-58
2024/01/08 02:52:24;;;;;;;;;3.40;3.40;;;;;-0.74;79.12;101051.75;5120503;28;8826;-58
2024/01/08 02:54:51;;;;;;;;;1.40;0.80;;;;;-0.74;78.92;101051.75;5120602;28;8862;-57
2024/01/08 02:57:19;;;;;;;;;3.00;2.20;;;;;-0.77;79.03;101058.78;5120407;28;8897;-57
2024/01/08 02:59:46;;;;;;;;;1.00;1.00;;;;;-0.76;78.74;101058.75;5119651;28;8899;-60
2024/01/08 03:02:14;;;;;;;;;1.00;1.00;;;;;-0.75;79.29;101072.69;5119961;28;8812;-57
2024/01/08 03:04:42;;;;;;;;;4.00;4.00;;;;;-0.75;79.40;101065.72;5120378;28;8827;-59
2024/01/08 03:07:09;;;;;;;;;3.00;1.00;;;;;-0.73;79.22;101065.69;5120162;28;8850;-58
2024/01/08 03:09:37;;;;;;;;;1.00;1.00;;;;;-0.73;80.20;101066.56;5120207;28;8844;-59
2024/01/08 03:12:04;;;;;;;;;3.80;3.80;;;;;-0.75;79.48;101077.94;5119903;28;8820;-58
2024/01/08 03:14:32;;;;;;;;;3.60;3.60;;;;;-0.77;79.67;101074.47;5119720;28;8982;-58
2024/01/08 03:16:59;;;;;;;;;4.80;3.00;;;;;-0.82;79.36;101077.16;5119806;28;8800;-60
2024/01/08 03:19:27;;;;;;;;;1.80;1.00;;;;;-0.85;80.00;101076.34;5118996;28;8896;-59
2024/01/08 03:21:55;;;;;;;;;3.00;2.20;;;;;-0.86;80.11;101077.25;5119231;28;8894;-60
2024/01/08 03:24:23;;;;;;;;;1.80;1.00;;;;;-0.87;79.96;101072.88;5119627;28;8848;-58
2024/01/08 03:26:51;;;;;;;;;2.60;2.60;;;;;-0.85;79.75;101074.59;5119573;28;8877;-60
2024/01/08 03:29:18;;;;;;;;;1.00;1.00;;;;;-0.83;79.84;101069.34;5119771;28;8827;-57
2024/01/08 03:31:46;;;;;;;;;1.00;1.00;;;;;-0.80;79.69;101064.94;5119681;28;8808;-59
2024/01/08 03:34:13;;;;;;;;;1.40;0.40;;;;;-0.77;79.73;101066.63;5119745;28;8836;-59
2024/01/08 03:36:42;;;;;;;;;1.00;1.00;;;;;-0.79;79.39;101061.44;5119319;28;8823;-57
2024/01/08 03:39:10;;;;;;;;;1.00;1.00;;;;;-0.81;79.79;101065.81;5119726;28;8831;-57
2024/01/08 03:41:39;;;;;;;;;1.00;1.00;;;;;-0.87;79.74;101067.66;5119433;28;8838;-59
2024/01/08 03:44:07;;;;;;;;;1.00;1.00;;;;;-0.91;79.39;101066.84;5119212;28;8871;-59
2024/01/08 03:46:34;;;;;;;;;1.00;1.00;;;;;-0.92;79.94;101069.50;5119527;28;8840;-58
2024/01/08 03:49:02;;;;;;;;;6.60;5.20;;;;;-0.93;79.62;101079.06;5119749;28;8832;-59
2024/01/08 03:51:30;;;;;;;;;1.80;1.40;;;;;-0.90;80.06;101072.94;5119646;28;9493;-59
2024/01/08 03:53:57;;;;;;;;;3.00;3.00;;;;;-0.92;80.04;101079.94;5119629;28;8824;-59
2024/01/08 03:56:25;;;;;;;;;0.20;0.20;;;;;-0.93;79.96;101065.16;5119453;28;8961;-58
2024/01/08 03:58:53;;;;;;;;;2.20;2.20;;;;;-0.96;80.35;101068.69;5118950;28;8962;-59
2024/01/08 04:01:20;;;;;;;;;4.00;3.00;;;;;-0.96;79.79;101068.69;5117617;28;8850;-58
2024/01/08 04:03:48;;;;;;;;;3.20;3.00;;;;;-0.94;80.45;101061.66;5118667;28;8820;-59
2024/01/08 04:06:16;;;;;;;;;4.80;3.60;;;;;-0.90;80.60;101065.09;5119009;28;8830;-58
2024/01/08 04:08:44;;;;;;;;;0.00;0.00;;;;;-0.86;79.93;101069.41;5119093;28;8916;-57
2024/01/08 04:11:12;;;;;;;;;3.40;3.40;;;;;-0.86;80.28;101069.41;5118899;28;8854;-59
2024/01/08 04:13:39;;;;;;;;;4.00;3.00;;;;;-0.85;80.13;101071.13;5118687;28;9474;-59
2024/01/08 04:16:07;;;;;;;;;1.60;1.40;;;;;-0.83;79.47;101074.56;5119101;28;8899;-59
2024/01/08 04:18:34;;;;;;;;;3.00;3.00;;;;;-0.82;80.48;101068.44;5118514;28;8844;-59
2024/01/08 04:21:02;;;;;;;;;1.00;1.00;;;;;-0.86;80.21;101067.63;5118251;28;8831;-58
2024/01/08 04:23:30;;;;;;;;;3.00;1.00;;;;;-0.86;80.17;101070.25;5118200;28;8824;-60
2024/01/08 04:25:57;;;;;;;;;3.40;3.20;;;;;-0.87;80.75;101071.13;5118472;28;8824;-59
2024/01/08 04:28:25;;;;;;;;;1.40;1.40;;;;;-0.85;80.59;101076.34;5118464;28;8832;-59
2024/01/08 04:30:53;;;;;;;;;0.00;0.00;;;;;-0.87;80.48;101073.75;5118217;28;8853;-58
2024/01/08 04:33:21;;;;;;;;;1.40;1.40;;;;;-0.89;80.57;101069.44;5118294;28;8909;-60
2024/01/08 04:35:49;;;;;;;;;4.00;3.00;;;;;-0.90;80.37;101071.19;5117880;28;8909;-59
2024/01/08 04:38:16;;;;;;;;;1.40;1.40;;;;;-0.87;80.28;101072.88;5118253;28;9702;-59
2024/01/08 04:40:44;;;;;;;;;3.00;3.00;;;;;-0.85;80.47;101073.75;5118012;28;8823;-59
2024/01/08 04:43:11;;;;;;;;;0.40;0.00;;;;;-0.85;80.53;101071.97;5117749;28;8876;-59
2024/01/08 04:45:39;;;;;;;;;3.00;3.00;;;;;-0.80;80.72;101064.06;5117927;28;8836;-59
2024/01/08 04:48:06;;;;;;;;;3.60;2.20;;;;;-0.76;80.66;101063.97;5118122;28;8865;-59
2024/01/08 04:50:34;;;;;;;;;3.00;3.00;;;;;-0.77;80.57;101054.41;5118257;28;9512;-57
2024/01/08 04:53:03;;;;;;;;;1.00;1.00;;;;;-0.76;80.43;101063.13;5118246;28;8888;-59
2024/01/08 04:55:30;;;;;;;;;4.80;3.60;;;;;-0.76;80.52;101063.13;5117692;28;8920;-60
2024/01/08 04:57:58;;;;;;;;;3.00;3.00;;;;;-0.77;80.22;101066.63;5117772;28;8823;-60
2024/01/08 05:00:25;;;;;;;;;3.80;3.80;;;;;-0.77;80.26;101067.47;5117516;28;8868;-59
2024/01/08 05:02:53;;;;;;;;;1.80;0.60;;;;;-0.77;80.34;101061.41;5117318;28;8831;-59
2024/01/08 05:05:20;;;;;;;;;3.00;1.80;;;;;-0.75;80.57;101070.09;5116478;28;8844;-59
2024/01/08 05:07:47;;;;;;;;;3.80;3.00;;;;;-0.73;80.83;101070.91;5116918;28;8836;-59
2024/01/08 05:10:15;;;;;;;;;1.00;1.00;;;;;-0.74;79.88;101063.97;5116181;28;9517;-57
2024/01/08 05:12:43;;;;;;;;;3.40;3.00;;;;;-0.73;80.46;101066.56;5115918;28;8812;-59
2024/01/08 05:15:10;;;;;;;;;1.80;1.40;;;;;-0.70;80.16;101066.50;5116707;28;8804;-57
2024/01/08 05:17:38;;;;;;;;;4.00;4.00;;;;;-0.71;80.57;101059.53;5116922;28;8812;-59
2024/01/08 05:20:06;;;;;;;;;3.00;3.00;;;;;-0.70;80.31;101066.50;5115865;28;8844;-56
2024/01/08 05:22:33;;;;;;;;;3.40;3.40;;;;;-0.69;80.06;101070.84;5116578;28;9627;-59
2024/01/08 05:25:01;;;;;;;;;3.00;3.00;;;;;-0.69;80.28;101068.22;5116520;28;9142;-59
2024/01/08 05:27:28;;;;;;;;;2.40;2.40;;;;;-0.73;80.38;101060.44;5115520;28;8847;-58
2024/01/08 05:29:56;;;;;;;;;3.60;3.60;;;;;-0.72;80.29;101070.03;5115812;28;8848;-59
2024/01/08 05:32:24;;;;;;;;;1.00;0.00;;;;;-0.71;79.87;101064.78;5115516;28;8867;-58
2024/01/08 05:34:53;;;;;;;;;2.20;2.20;;;;;-0.69;80.26;101065.59;5114792;28;8897;-59
2024/01/08 05:37:20;;;;;;;;;1.80;1.00;;;;;-0.67;80.65;101061.25;5115283;28;8831;-58
2024/01/08 05:39:48;;;;;;;;;2.20;2.20;;;;;-0.68;80.55;101061.25;5115623;28;8836;-59
2024/01/08 05:42:16;;;;;;;;;0.60;0.60;;;;;-0.71;80.44;101062.16;5114085;28;8882;-59
2024/01/08 05:44:43;;;;;;;;;3.60;3.20;;;;;-0.73;80.09;101060.44;5114836;28;8867;-59
2024/01/08 05:47:11;;;;;;;;;4.00;3.80;;;;;-0.72;80.05;101062.19;5115948;28;8831;-59
2024/01/08 05:49:39;;;;;;;;;4.00;3.00;;;;;-0.71;80.38;101061.31;5115459;28;8827;-59
2024/01/08 05:52:06;;;;;;;;;0.00;0.00;;;;;-0.65;80.15;101071.66;5115037;28;8862;-59
2024/01/08 05:54:34;;;;;;;;;3.60;2.20;;;;;-0.61;80.91;101062.88;5115168;28;8931;-58
2024/01/08 05:57:02;;;;;;;;;3.60;2.20;;;;;-0.62;80.05;101059.38;5115065;28;8858;-60
2024/01/08 05:59:30;;;;;;;;;4.80;4.00;;;;;-0.60;79.98;101062.88;5114620;28;8855;-58
2024/01/08 06:01:58;;;;;;;;;2.60;1.00;;;;;-0.57;80.03;101061.91;5114097;28;8832;-58
2024/01/08 06:04:26;;;;;;;;;3.80;3.00;;;;;-0.59;79.65;101058.47;5114778;28;8832;-59
2024/01/08 06:06:55;;;;;;;;;0.80;0.80;;;;;-0.58;79.74;101065.44;5114522;28;8824;-59
2024/01/08 06:09:22;;;;;;;;;3.60;3.40;;;;;-0.57;79.91;101073.25;5115596;28;8836;-59
2024/01/08 06:24:20;;;;;;;;;3.00;3.00;;;;;-0.57;80.01;101080.22;5114640;28;8772;-60
2024/01/08 06:26:48;;;;;;;;;3.00;2.20;;;;;-0.55;80.42;101076.72;5115355;28;8820;-60
2024/01/08 06:29:16;;;;;;;;;1.80;1.80;;;;;-0.54;80.12;101078.44;5115313;28;8804;-60
2024/01/08 06:31:43;;;;;;;;;3.00;3.00;;;;;-0.54;80.20;101083.66;5114714;28;8832;-60
2024/01/08 06:34:11;;;;;;;;;2.60;2.60;;;;;-0.52;80.04;101086.25;5115128;28;8878;-59
2024/01/08 06:36:39;;;;;;;;;3.00;3.00;;;;;-0.52;79.99;101081.91;5115322;28;8956;-59
2024/01/08 06:39:06;;;;;;;;;2.60;2.60;;;;;-0.51;80.00;101077.50;5114900;28;8831;-59
2024/01/08 06:41:34;;;;;;;;;2.60;1.00;;;;;-0.49;79.84;101076.59;5115103;28;8842;-58
2024/01/08 06:44:02;;;;;;;;;1.60;0.00;;;;;-0.48;79.72;101083.56;5114889;28;8882;-57
2024/01/08 06:46:30;;;;;;;;;1.00;0.80;;;;;-0.46;80.21;101080.94;5115082;28;8824;-59
2024/01/08 06:48:59;;;;;;;;;1.80;1.80;;;;;-0.45;79.46;101082.66;5114524;28;8958;-58
2024/01/08 06:51:26;;;;;;;;;3.00;2.60;;;;;-0.46;79.71;101086.16;5114631;28;8877;-60
2024/01/08 06:53:54;;;;;;;;;2.60;1.00;;;;;-0.45;79.57;101087.88;5114595;28;8820;-59
2024/01/08 06:56:21;;;;;;;;;4.00;4.00;;;;;-0.45;78.88;101087.88;5113867;28;8832;-60
2024/01/08 06:58:49;;;;;;;;;3.00;3.00;;;;;-0.45;79.08;101093.13;5113803;28;8923;-58
2024/01/08 07:01:17;;;;;;;;;3.00;3.00;;;;;-0.46;79.43;101088.78;5114305;28;8866;-59
2024/01/08 07:03:45;;;;;;;;;3.40;3.00;;;;;-0.46;79.24;101086.16;5114189;28;8892;-59
2024/01/08 07:06:13;;;;;;;;;1.00;1.00;;;;;-0.45;79.66;101087.88;5114602;28;8976;-59
2024/01/08 07:08:40;;;;;;;;;2.60;2.60;;;;;-0.46;79.08;101087.00;5113909;28;8827;-59
2024/01/08 07:11:08;;;;;;;;;3.00;1.40;;;;;-0.47;79.02;101092.28;5114670;28;8828;-59
2024/01/08 07:13:36;;;;;;;;;1.80;1.40;;;;;-0.47;79.34;101095.75;5114680;28;8840;-58
2024/01/08 07:16:04;;;;;;;;;3.60;3.60;;;;;-0.49;79.50;101087.06;5113148;28;8820;-59
2024/01/08 07:18:31;;;;;;;;;5.20;3.80;;;;;-0.48;79.21;101090.56;5114057;28;8828;-59
2024/01/08 07:20:59;;;;;;;;;2.60;1.80;;;;;-0.49;79.42;101094.91;5113500;28;8828;-59
2024/01/08 07:23:27;;;;;;;;;3.00;2.60;;;;;-0.48;79.26;101087.94;5114193;28;8854;-59
2024/01/08 07:25:56;;;;;;;;;6.00;5.80;;;;;-0.48;79.10;101078.34;5114210;28;8900;-59
2024/01/08 07:28:24;;;;;;;;;3.00;3.00;;;;;-0.48;79.23;101091.41;5114264;28;8862;-59
2024/01/08 07:30:51;;;;;;;;;0.40;0.40;;;;;-0.48;78.81;101090.56;5114419;28;8838;-59
2024/01/08 07:33:19;;;;;;;;;1.00;1.00;;;;;-0.49;79.19;101088.81;5114406;28;8845;-60
2024/01/08 07:35:47;;;;;;;;;1.00;1.00;;;;;-0.51;79.71;101088.84;5113584;28;9272;-59
2024/01/08 07:38:14;;;;;;;;;3.60;0.20;;;;;-0.51;78.92;101096.69;5118019;28;8832;-60
2024/01/08 07:40:42;;;;;;;;;4.00;3.60;;;;;-0.51;78.87;101101.06;5118135;28;8950;-59
2024/01/08 07:43:10;;;;;;;;;3.00;1.00;;;;;-0.51;78.83;101103.66;5119009;28;8835;-57
2024/01/08 07:45:37;;;;;;;;;1.00;1.00;;;;;-0.50;79.01;101101.03;5118350;28;9645;-60
2024/01/08 07:48:05;;;;;;;;;3.00;1.00;;;;;-0.50;79.27;101105.41;5118828;28;8820;-59
2024/01/08 07:50:33;;;;;;;;;2.20;0.60;;;;;-0.50;79.30;101106.28;5119019;28;8808;-59
2024/01/08 07:53:01;;;;;;;;;0.40;0.20;;;;;-0.51;79.22;101106.28;5118657;28;8854;-57
2024/01/08 07:55:29;;;;;;;;;1.00;1.00;;;;;-0.47;78.39;101110.59;5118929;28;8838;-59
2024/01/08 07:57:56;;;;;;;;;1.80;1.00;;;;;-0.48;78.29;101120.19;5118282;28;8828;-58
2024/01/08 08:00:25;;;;;;;;;2.60;2.60;;;;;-0.47;79.04;101116.66;5117504;28;8949;-59
2024/01/08 08:02:54;;;;;;;;;3.00;3.00;;;;;-0.47;78.61;101121.06;5117136;28;8863;-60
2024/01/08 08:05:22;;;;;;;;;1.00;1.00;;;;;-0.47;78.58;101121.06;5117903;28;8962;-59
2024/01/08 08:07:52;;;;;;;;;4.00;4.00;;;;;-0.47;78.81;101127.13;5118251;28;8846;-57
2024/01/08 08:10:20;;;;;;;;;3.20;3.00;;;;;-0.45;79.08;101137.56;5117926;28;8840;-59
2024/01/08 08:12:51;;;;;;;;;1.80;1.80;;;;;-0.45;78.53;101125.38;5116956;28;8827;-59
2024/01/08 08:15:19;;;;;;;;;3.20;2.20;;;;;-0.45;78.59;101116.66;5117623;28;8812;-59
2024/01/08 08:17:47;;;;;;;;;3.60;3.60;;;;;-0.46;78.88;101123.63;5117802;28;8866;-58
2024/01/08 08:20:15;;;;;;;;;2.20;1.40;;;;;-0.45;78.75;101127.13;5117719;28;8836;-60
2024/01/08 08:22:43;;;;;;;;;3.20;3.00;;;;;-0.39;79.00;101137.47;5117696;28;8840;-58
2024/01/08 08:25:12;;;;;;;;;1.00;1.00;;;;;-0.40;78.81;101138.38;5117463;28;8870;-58
2024/01/08 08:27:40;;;;;;;;;6.80;5.60;;;;;-0.44;78.56;101137.56;5115992;28;8836;-59
2024/01/08 08:30:11;;;;;;;;;0.80;0.80;;;;;-0.44;79.02;101148.03;5115784;28;8843;-59
2024/01/08 08:32:40;;;;;;;;;2.60;2.60;;;;;-0.39;78.45;101134.88;5115876;28;8856;-59
2024/01/08 08:35:08;;;;;;;;;1.40;1.40;;;;;-0.36;78.37;101140.03;5116392;28;9003;-58
2024/01/08 08:37:36;;;;;;;;;3.00;3.00;;;;;-0.34;78.07;101135.63;5116618;28;9449;-57
2024/01/08 08:40:19;;;;;;;;;1.00;1.00;;;;;-0.33;78.02;101147.84;5115625;28;8889;-59
2024/01/08 08:42:46;;;;;;;;;2.60;2.60;;;;;-0.32;78.12;101149.56;5115995;28;8963;-57
2024/01/08 08:45:17;;;;;;;;;0.80;0.80;;;;;-0.34;77.63;101143.47;5116082;28;8835;-59
2024/01/08 08:47:45;;;;;;;;;3.20;1.40;;;;;-0.37;77.50;101154.00;5115572;28;8870;-60
2024/01/08 08:50:13;;;;;;;;;1.00;1.00;;;;;-0.43;77.61;101159.34;5117070;28;8840;-58
2024/01/08 08:52:43;;;;;;;;;1.00;1.00;;;;;-0.45;77.06;101164.63;5117074;28;8921;-57
2024/01/08 08:55:12;;;;;;;;;3.00;3.00;;;;;-0.47;77.35;101161.13;5117588;28;8858;-59
2024/01/08 08:57:40;;;;;;;;;0.40;0.40;;;;;-0.46;77.57;101167.25;5084470;28;8812;-58
2024/01/08 09:00:08;;;;;;;;;3.00;3.00;;;;;-0.48;76.81;101166.41;5076846;28;8848;-57
2024/01/08 09:02:37;;;;;;;;;1.00;1.00;;;;;-0.49;77.47;101169.88;5076214;28;8856;-56
2024/01/08 09:05:07;;;;;;;;;0.00;0.00;;;;;-0.48;76.67;101171.66;5076220;28;8836;-55
2024/01/08 09:07:36;;;;;;;;;2.20;2.20;;;;;-0.51;76.08;101172.53;5075959;28;8836;-57
2024/01/08 09:10:04;;;;;;;;;0.20;0.20;;;;;-0.49;76.06;101175.13;5074803;28;8828;-55
2024/01/08 09:12:32;;;;;;;;;3.60;2.60;;;;;-0.50;75.95;101182.13;5074666;28;8872;-55
2024/01/08 09:15:00;;;;;;;;;0.40;0.00;;;;;-0.51;76.16;101184.75;5075571;28;8832;-56
2024/01/08 09:17:29;;;;;;;;;1.00;1.00;;;;;-0.47;76.00;101186.44;5075931;28;8824;-55
2024/01/08 09:19:57;;;;;;;;;3.00;3.00;;;;;-0.43;75.43;101191.59;5067979;28;8800;-57
2024/01/08 09:22:25;;;;;;;;;0.40;0.40;;;;;-0.38;75.04;101194.16;5081948;28;8962;-56
2024/01/08 09:24:53;;;;;;;;;1.00;1.00;;;;;-0.35;75.08;101191.47;5084965;28;9520;-58
2024/01/08 09:27:21;;;;;;;;;2.20;2.20;;;;;-0.37;74.25;101193.25;5092513;28;8924;-57
2024/01/08 09:29:48;;;;;;;;;1.00;1.00;;;;;-0.45;73.62;101202.97;5094740;28;8834;-58
2024/01/08 09:32:16;;;;;;;;;0.00;0.00;;;;;-0.50;73.90;101210.88;5094982;28;8845;-57
2024/01/08 09:34:44;;;;;;;;;1.60;1.40;;;;;-0.57;73.46;101209.25;5095222;28;8830;-59
2024/01/08 09:37:12;;;;;;;;;6.00;6.00;;;;;-0.64;73.17;101210.22;5095642;28;8821;-57
2024/01/08 09:39:39;;;;;;;;;1.00;1.00;;;;;-0.69;72.98;101217.25;5095511;28;9511;-55
2024/01/08 09:42:07;;;;;;;;;3.00;3.00;;;;;-0.72;72.79;101216.44;5095379;28;8838;-57
2024/01/08 09:44:35;;;;;;;;;1.00;1.00;;;;;-0.72;72.91;101226.88;5095236;28;8980;-56
2024/01/08 09:47:03;;;;;;;;;1.00;0.60;;;;;-0.73;72.27;101233.00;5094713;28;8848;-56
2024/01/08 09:49:32;;;;;;;;;1.80;1.80;;;;;-0.75;71.52;101235.66;5094778;28;9504;-59
2024/01/08 09:52:01;;;;;;;;;0.00;0.00;;;;;-0.75;71.39;101242.63;5094686;28;8826;-59
2024/01/08 09:54:29;;;;;;;;;3.00;3.00;;;;;-0.75;70.60;101245.25;5094938;28;8842;-57
2024/01/08 09:56:57;;;;;;;;;0.80;0.60;;;;;-0.75;69.79;101238.28;5095034;28;8830;-59
2024/01/08 09:59:26;;;;;;;;;0.80;0.80;;;;;-0.76;69.29;101239.13;5094282;28;8836;-57
2024/01/08 10:01:56;;;;;;;;;1.00;1.00;;;;;-0.75;68.06;101240.88;5094857;28;8842;-57
2024/01/08 10:04:25;;;;;;;;;0.00;0.00;;;;;-0.74;67.95;101252.19;5094360;28;9688;-57
2024/01/08 10:06:54;;;;;;;;;0.20;0.20;;;;;-0.73;67.50;101239.13;5093941;28;8822;-58
2024/01/08 10:09:24;;;;;;;;;1.00;0.20;;;;;-0.66;67.13;101232.91;5095220;28;8826;-59
2024/01/08 10:11:52;;;;;;;;;1.00;1.00;;;;;-0.56;66.32;101225.78;5095329;28;8862;-58
2024/01/08 10:14:21;;;;;;;;;1.00;1.00;;;;;-0.37;66.06;101238.59;5095400;28;9616;-57
2024/01/08 10:16:49;;;;;;;;;0.80;0.80;;;;;-0.13;65.11;101233.84;5095360;28;8899;-57
2024/01/08 10:19:29;;;;;;;;;3.00;1.80;;;;;0.16;63.27;101231.59;5095196;28;8825;-58
2024/01/08 10:21:57;;;;;;;;;0.00;0.00;;;;;0.39;62.29;101234.69;5095480;28;8822;-57
2024/01/08 10:24:25;;;;;;;;;1.00;1.00;;;;;0.64;61.79;101235.09;5094701;28;8830;-57
2024/01/08 10:26:53;;;;;;;;;0.00;0.00;;;;;0.85;61.26;101227.69;5094743;28;8861;-58
2024/01/08 10:29:21;;;;;;;;;2.20;2.20;;;;;1.09;60.44;101227.22;5094387;28;8856;-59
2024/01/08 10:31:49;;;;;;;;;1.00;1.00;;;;;1.26;60.62;101226.81;5094368;28;8837;-57
2024/01/08 10:34:17;;;;;;;;;2.20;1.00;;;;;1.32;60.09;101219.72;5094368;28;8814;-59
2024/01/08 10:36:44;;;;;;;;;1.00;1.00;;;;;1.41;60.64;101230.00;5094620;28;8840;-57
2024/01/08 10:39:13;;;;;;;;;0.00;0.00;;;;;1.52;59.80;101214.84;5094234;28;8869;-57
2024/01/08 10:41:40;;;;;;;;;2.20;2.20;;;;;1.85;58.21;101219.34;5094915;28;8826;-59
2024/01/08 10:44:09;;;;;;;;;0.60;0.60;;;;;2.36;57.44;101212.75;5094830;28;8826;-58
2024/01/08 10:46:37;;;;;;;;;1.00;1.00;;;;;2.82;56.03;101202.75;5094604;28;8930;-57
2024/01/08 10:49:04;;;;;;;;;2.20;1.40;;;;;3.26;56.39;101197.03;5094957;28;8826;-57
2024/01/08 10:51:32;;;;;;;;;2.20;2.20;;;;;3.77;55.73;101197.22;5095457;28;8861;-60
2024/01/08 10:54:00;;;;;;;;;2.20;2.20;;;;;4.29;55.22;101196.31;5095223;28;8838;-58
2024/01/08 10:56:28;;;;;;;;;3.00;3.00;;;;;4.75;54.64;101198.19;5095445;28;8822;-57
2024/01/08 10:58:56;;;;;;;;;0.60;0.60;;;;;5.14;52.78;101188.78;5095488;28;8829;-60
2024/01/08 11:01:24;;;;;;;;;2.20;2.20;;;;;5.29;51.87;101198.78;5095569;28;8838;-58
2024/01/08 11:03:52;;;;;;;;;4.80;3.00;;;;;5.21;52.31;101195.56;5094654;28;8836;-56
2024/01/08 11:06:20;;;;;;;;;6.40;4.80;;;;;4.92;54.20;101198.44;5094614;28;9019;-57
2024/01/08 11:08:48;;;;;;;;;0.40;0.40;;;;;4.62;55.17;101205.69;5094128;28;8849;-59
2024/01/08 11:11:18;;;;;;;;;1.40;1.40;;;;;4.53;54.88;101207.75;5094986;28;9503;-57
2024/01/08 11:13:45;;;;;;;;;0.80;0.80;;;;;4.36;54.54;101216.28;5098292;28;8838;-59
2024/01/08 11:16:13;;;;;;;;;3.60;3.00;;;;;4.17;55.41;101209.88;5098683;28;8830;-57
2024/01/08 11:18:41;;;;;;;;;0.00;0.00;;;;;4.17;54.59;101211.66;5098150;28;8830;-57
2024/01/08 11:21:10;;;;;;;;;0.00;0.00;;;;;4.21;52.87;101210.66;5098012;28;8903;-59
2024/01/08 11:23:38;;;;;;;;;1.80;1.40;;;;;4.34;52.77;101222.50;5098581;28;8826;-60
2024/01/08 11:26:07;;;;;;;;;3.00;3.00;;;;;4.36;51.96;101220.69;5098287;28;8846;-57
2024/01/08 11:28:35;;;;;;;;;3.60;2.60;;;;;4.31;51.87;101210.28;5098781;28;8837;-59
2024/01/08 11:31:03;;;;;;;;;3.00;2.20;;;;;4.31;52.12;101210.28;5097788;28;8826;-57
2024/01/08 11:33:37;;;;;;;;;3.80;3.80;;;;;4.30;52.26;101215.59;5097761;28;8864;-57
2024/01/08 11:36:05;;;;;;;;;2.20;1.80;;;;;4.31;53.05;101206.78;5089406;28;9001;-59
2024/01/08 11:38:34;;;;;;;;;1.20;1.20;;;;;4.40;52.37;101211.75;5098083;28;8826;-59
2024/01/08 11:41:02;;;;;;;;;1.00;1.00;;;;;4.47;51.67;101208.84;5097359;28;8822;-59
2024/01/08 11:43:30;;;;;;;;;3.00;3.00;;;;;4.44;51.46;101197.53;5097808;28;8870;-59
2024/01/08 11:46:00;;;;;;;;;1.00;1.00;;;;;4.41;50.87;101210.84;5096747;28;8830;-57
2024/01/08 11:48:27;;;;;;;;;1.00;1.00;;;;;4.46;51.25;101206.25;5096496;28;8818;-56
2024/01/08 11:50:56;;;;;;;;;0.00;0.00;;;;;4.54;51.78;101196.31;5096607;28;8845;-57